Time;durP1;ratioP1;P1;durP2;ratioP2;P2;SDS_P1;SDS_P2;PMS_P1;PMS_P2;Temp;Humidity;BMP_temperature;BMP_pressure;BME280_temperature;BME280_humidity;BME280_pressure;Samples;Min_cycle;Max_cycle;Signal;HPM_P1;HPM_P2
2023/03/31 00:01:40;;;;;;;;;;;10.60;99.90;;;;;;4960810;28;19926;-80
2023/03/31 00:04:08;;;;;;;;;;;10.60;99.90;;;;;;4964571;28;19945;-83
2023/03/31 00:06:36;;;;;;;;;;;10.70;99.90;;;;;;4952021;29;19928;-83
2023/03/31 00:09:04;;;;;;;;;;;10.70;99.90;;;;;;4960108;28;19926;-83
2023/03/31 00:11:31;;;;;;;;;;;10.60;99.90;;;;;;4945155;29;19923;-84
2023/03/31 00:13:57;;;;;;;;;;;10.70;99.90;;;;;;4943381;29;19926;-83
2023/03/31 00:16:26;;;;;;;;;;;10.70;99.90;;;;;;4942866;29;19930;-83
2023/03/31 00:18:54;;;;;;;;;;;10.70;99.90;;;;;;4943941;29;19977;-82
2023/03/31 00:21:28;;;;;;;;;;;10.70;99.90;;;;;;4963164;29;19910;-82
2023/03/31 00:23:56;;;;;;;;;;;10.70;99.90;;;;;;4946805;29;19989;-82
2023/03/31 00:26:23;;;;;;;;;;;10.80;99.90;;;;;;4963361;29;19933;-82
2023/03/31 00:28:50;;;;;;;;;;;10.90;99.90;;;;;;4964206;28;19937;-82
2023/03/31 00:31:17;;;;;;;;;;;10.90;99.90;;;;;;4943882;29;19922;-82
2023/03/31 00:33:45;;;;;;;;;;;11.00;99.90;;;;;;4945536;29;19934;-81
2023/03/31 00:36:16;;;;;;;;;;;11.10;99.90;;;;;;4935333;29;19930;-81
2023/03/31 00:38:45;;;;;;;;;;;11.10;99.90;;;;;;4944177;29;19926;-81
2023/03/31 00:41:12;;;;;;;;;;;11.10;99.90;;;;;;4962530;28;19922;-81
2023/03/31 00:43:41;;;;;;;;;;;11.20;99.90;;;;;;4947055;28;19923;-82
2023/03/31 00:46:14;;;;;;;;;;;11.20;99.90;;;;;;4943860;29;19929;-82
2023/03/31 00:48:45;;;;;;;;;;;11.20;99.90;;;;;;4943408;29;19922;-83
2023/03/31 00:51:13;;;;;;;;;;;11.30;99.90;;;;;;4954985;28;19926;-82
2023/03/31 00:53:40;;;;;;;;;;;11.30;99.90;;;;;;4965945;28;19938;-83
2023/03/31 00:56:10;;;;;;;;;;;11.30;99.90;;;;;;4942387;29;19929;-83
2023/03/31 00:58:42;;;;;;;;;;;11.30;99.90;;;;;;4960368;29;20397;-81
2023/03/31 01:01:13;;;;;;;;;;;11.30;99.90;;;;;;4951168;28;19930;-81
2023/03/31 01:03:41;;;;;;;;;;;11.30;99.90;;;;;;4941608;29;19922;-83
2023/03/31 01:06:09;;;;;;;;;;;11.30;99.90;;;;;;4943227;29;20490;-82
2023/03/31 01:08:38;;;;;;;;;;;11.30;99.90;;;;;;4956666;28;20351;-81
2023/03/31 01:11:06;;;;;;;;;;;11.30;99.90;;;;;;4929111;29;19957;-82
2023/03/31 01:13:34;;;;;;;;;;;11.30;99.90;;;;;;4954557;29;19930;-81
2023/03/31 01:16:01;;;;;;;;;;;11.30;99.90;;;;;;4957332;28;19929;-82
2023/03/31 01:18:28;;;;;;;;;;;11.30;99.90;;;;;;4943192;29;19927;-82
2023/03/31 01:21:13;;;;;;;;;;;11.30;99.90;;;;;;4937794;29;20011;-82
2023/03/31 01:23:49;;;;;;;;;;;11.40;99.90;;;;;;4938447;29;19922;-82
2023/03/31 01:26:27;;;;;;;;;;;11.30;99.90;;;;;;4943386;28;19930;-82
2023/03/31 01:28:58;;;;;;;;;;;11.30;99.90;;;;;;4943755;28;19922;-80
2023/03/31 01:31:40;;;;;;;;;;;11.40;99.90;;;;;;4933918;29;19923;-80
2023/03/31 01:34:31;;;;;;;;;;;11.40;99.90;;;;;;4931773;29;19927;-79
2023/03/31 01:37:14;;;;;;;;;;;11.30;99.90;;;;;;4946327;28;19926;-79
2023/03/31 01:40:02;;;;;;;;;;;11.30;99.90;;;;;;4939420;29;19926;-79
2023/03/31 01:42:32;;;;;;;;;;;11.30;99.90;;;;;;4949319;29;19926;-79
2023/03/31 01:45:02;;;;;;;;;;;11.20;99.90;;;;;;4951660;28;20374;-79
2023/03/31 01:47:33;;;;;;;;;;;11.20;99.90;;;;;;4948594;29;19942;-79
2023/03/31 01:50:02;;;;;;;;;;;11.20;99.90;;;;;;4942172;29;19922;-80
2023/03/31 01:52:34;;;;;;;;;;;11.20;99.90;;;;;;4957503;29;19926;-80
2023/03/31 01:55:05;;;;;;;;;;;11.20;99.90;;;;;;4947733;29;19922;-80
2023/03/31 01:57:33;;;;;;;;;;;11.20;99.90;;;;;;4943059;29;19926;-80
2023/03/31 02:00:03;;;;;;;;;;;11.20;99.90;;;;;;4943510;29;19929;-80
2023/03/31 02:02:40;;;;;;;;;;;11.20;99.90;;;;;;4966845;28;20558;-81
2023/03/31 02:05:09;;;;;;;;;;;11.20;99.90;;;;;;4952499;29;19926;-80
2023/03/31 02:07:39;;;;;;;;;;;11.20;99.90;;;;;;4945549;28;19953;-81
2023/03/31 02:10:10;;;;;;;;;;;11.20;99.90;;;;;;4951172;28;19950;-81
2023/03/31 02:12:38;;;;;;;;;;;11.20;99.90;;;;;;4959247;28;19926;-80
2023/03/31 02:15:08;;;;;;;;;;;11.20;99.90;;;;;;4960662;28;19956;-82
2023/03/31 02:17:40;;;;;;;;;;;11.20;99.90;;;;;;4942449;29;19939;-82
2023/03/31 02:20:10;;;;;;;;;;;11.20;99.90;;;;;;4945283;29;19936;-82
2023/03/31 02:22:38;;;;;;;;;;;11.20;99.90;;;;;;4941150;29;20334;-81
2023/03/31 02:25:06;;;;;;;;;;;11.20;99.90;;;;;;4941873;29;19929;-81
2023/03/31 02:27:36;;;;;;;;;;;11.20;99.90;;;;;;4940854;29;19922;-81
2023/03/31 02:30:03;;;;;;;;;;;11.20;99.90;;;;;;4940345;29;19931;-81
2023/03/31 02:32:32;;;;;;;;;;;11.20;99.90;;;;;;4958537;28;19933;-81
2023/03/31 02:34:59;;;;;;;;;;;11.30;99.90;;;;;;4957370;28;19922;-82
2023/03/31 02:37:29;;;;;;;;;;;11.20;99.90;;;;;;4940092;29;19922;-83
2023/03/31 02:39:57;;;;;;;;;;;11.30;99.90;;;;;;4958674;29;19926;-83
2023/03/31 02:42:24;;;;;;;;;;;11.20;99.90;;;;;;4940691;29;20275;-82
2023/03/31 02:44:53;;;;;;;;;;;11.20;99.90;;;;;;4940967;29;20021;-83
2023/03/31 02:47:21;;;;;;;;;;;11.20;99.90;;;;;;4940600;29;19956;-82
2023/03/31 02:49:51;;;;;;;;;;;11.20;99.90;;;;;;4940430;29;19938;-82
2023/03/31 02:52:30;;;;;;;;;;;11.20;99.90;;;;;;4940376;29;19958;-83
2023/03/31 02:55:14;;;;;;;;;;;11.20;99.90;;;;;;4939294;29;19965;-83
2023/03/31 02:57:49;;;;;;;;;;;11.20;99.90;;;;;;4936649;29;19927;-83
2023/03/31 03:00:22;;;;;;;;;;;11.20;99.90;;;;;;4922014;29;20048;-83
2023/03/31 03:02:53;;;;;;;;;;;11.20;99.90;;;;;;4936464;29;19923;-84
2023/03/31 03:05:33;;;;;;;;;;;11.20;99.90;;;;;;4921797;29;19962;-83
2023/03/31 03:08:21;;;;;;;;;;;11.20;99.90;;;;;;4958159;28;20073;-82
2023/03/31 03:10:55;;;;;;;;;;;11.20;99.90;;;;;;4930451;29;19954;-84
2023/03/31 03:13:26;;;;;;;;;;;11.20;99.90;;;;;;4941201;29;19926;-83
2023/03/31 03:15:58;;;;;;;;;;;11.20;99.90;;;;;;4941382;29;20013;-84
2023/03/31 03:18:25;;;;;;;;;;;11.20;99.90;;;;;;4941259;29;19922;-83
2023/03/31 03:20:52;;;;;;;;;;;11.20;99.90;;;;;;4940579;29;20490;-83
2023/03/31 03:23:19;;;;;;;;;;;11.20;99.90;;;;;;4941182;29;19927;-84
2023/03/31 03:25:46;;;;;;;;;;;11.20;99.90;;;;;;4958250;28;19936;-83
2023/03/31 03:28:13;;;;;;;;;;;11.20;99.90;;;;;;4958509;28;20361;-82
2023/03/31 03:30:40;;;;;;;;;;;11.20;99.90;;;;;;4958509;28;19929;-82
2023/03/31 03:33:08;;;;;;;;;;;11.20;99.90;;;;;;4940471;29;19933;-83
2023/03/31 03:35:35;;;;;;;;;;;11.20;99.90;;;;;;4959978;29;19926;-81
2023/03/31 03:38:02;;;;;;;;;;;11.20;99.90;;;;;;4969853;28;19957;-82
2023/03/31 03:40:29;;;;;;;;;;;11.20;99.90;;;;;;4972462;28;19930;-82
2023/03/31 03:42:56;;;;;;;;;;;11.10;99.90;;;;;;4943772;29;19926;-82
2023/03/31 03:45:23;;;;;;;;;;;11.20;99.90;;;;;;4943833;29;19933;-82
2023/03/31 03:47:53;;;;;;;;;;;11.10;99.90;;;;;;4945089;29;20021;-81
2023/03/31 03:50:21;;;;;;;;;;;11.10;99.90;;;;;;4943407;29;19981;-80
2023/03/31 03:52:48;;;;;;;;;;;11.10;99.90;;;;;;4942286;29;19930;-80
2023/03/31 03:55:17;;;;;;;;;;;11.10;99.90;;;;;;4956059;28;19926;-81
2023/03/31 03:57:44;;;;;;;;;;;11.20;99.90;;;;;;4943205;29;19954;-81
2023/03/31 04:00:11;;;;;;;;;;;11.10;99.90;;;;;;4961319;29;19922;-81
2023/03/31 04:02:38;;;;;;;;;;;11.10;99.90;;;;;;4963622;28;19929;-80
2023/03/31 04:05:05;;;;;;;;;;;11.10;99.90;;;;;;4943845;29;19926;-81
2023/03/31 04:07:34;;;;;;;;;;;11.00;99.90;;;;;;4959065;29;19922;-82
2023/03/31 04:10:01;;;;;;;;;;;11.00;99.90;;;;;;4961084;29;20365;-81
2023/03/31 04:12:28;;;;;;;;;;;11.00;99.90;;;;;;4942301;29;19978;-81
2023/03/31 04:14:55;;;;;;;;;;;11.00;99.90;;;;;;4942843;29;19927;-80
2023/03/31 04:17:31;;;;;;;;;;;11.00;99.90;;;;;;4943084;29;19926;-83
2023/03/31 04:20:00;;;;;;;;;;;11.00;99.90;;;;;;4961681;28;19962;-82
2023/03/31 04:22:28;;;;;;;;;;;11.00;99.90;;;;;;4938242;29;20065;-82
2023/03/31 04:24:57;;;;;;;;;;;11.00;99.90;;;;;;4962871;29;19926;-82
2023/03/31 04:27:25;;;;;;;;;;;11.00;99.90;;;;;;4944095;29;20426;-81
2023/03/31 04:29:54;;;;;;;;;;;11.00;99.90;;;;;;4945836;29;19949;-82
2023/03/31 04:32:21;;;;;;;;;;;11.10;99.90;;;;;;4945523;29;20639;-81
2023/03/31 04:34:49;;;;;;;;;;;11.00;99.90;;;;;;4961956;29;19926;-81
2023/03/31 04:37:16;;;;;;;;;;;11.00;99.90;;;;;;4960130;28;19937;-80
2023/03/31 04:39:45;;;;;;;;;;;11.00;99.90;;;;;;4944187;29;20334;-81
2023/03/31 04:42:13;;;;;;;;;;;11.00;99.90;;;;;;4943564;29;19982;-81
2023/03/31 04:44:40;;;;;;;;;;;11.00;99.90;;;;;;4960840;29;20301;-81
2023/03/31 04:47:07;;;;;;;;;;;11.00;99.90;;;;;;4943756;29;19922;-81
2023/03/31 04:49:35;;;;;;;;;;;11.00;99.90;;;;;;4959039;28;20440;-81
2023/03/31 04:52:02;;;;;;;;;;;11.00;99.90;;;;;;4941351;29;19930;-81
2023/03/31 04:54:29;;;;;;;;;;;10.90;99.90;;;;;;4941604;29;19926;-81
2023/03/31 04:56:56;;;;;;;;;;;10.80;99.90;;;;;;4941432;29;19922;-80
2023/03/31 04:59:24;;;;;;;;;;;10.80;99.90;;;;;;4924456;29;19922;-80
2023/03/31 05:01:51;;;;;;;;;;;10.80;99.90;;;;;;4939934;29;19945;-78
2023/03/31 05:04:18;;;;;;;;;;;10.70;99.90;;;;;;4938648;29;19926;-79
2023/03/31 05:06:45;;;;;;;;;;;10.70;99.90;;;;;;4957123;28;20616;-79
2023/03/31 05:09:11;;;;;;;;;;;10.70;99.90;;;;;;4940074;29;19923;-78
2023/03/31 05:11:38;;;;;;;;;;;10.60;99.90;;;;;;4939541;29;20122;-79
2023/03/31 05:14:05;;;;;;;;;;;10.60;99.90;;;;;;4961128;28;19931;-80
2023/03/31 05:16:40;;;;;;;;;;;10.50;99.90;;;;;;4937880;29;19977;-78
2023/03/31 05:19:08;;;;;;;;;;;10.50;99.90;;;;;;4940101;29;19922;-79
2023/03/31 05:21:35;;;;;;;;;;;10.50;99.90;;;;;;4939171;29;19926;-79
2023/03/31 05:24:02;;;;;;;;;;;10.40;99.90;;;;;;4937109;29;20395;-79
2023/03/31 05:26:30;;;;;;;;;;;10.50;99.90;;;;;;4940198;29;19930;-80
2023/03/31 05:29:09;;;;;;;;;;;10.40;99.90;;;;;;4960371;29;19926;-81
2023/03/31 05:31:37;;;;;;;;;;;10.50;99.90;;;;;;4941704;29;19930;-82
2023/03/31 05:34:05;;;;;;;;;;;10.50;99.90;;;;;;4943949;29;20670;-82
2023/03/31 05:36:33;;;;;;;;;;;10.60;99.90;;;;;;4948063;28;19910;-84
2023/03/31 05:39:02;;;;;;;;;;;10.70;99.90;;;;;;4964883;28;19968;-80
2023/03/31 05:41:33;;;;;;;;;;;10.70;99.90;;;;;;4963502;29;19929;-81
2023/03/31 05:44:00;;;;;;;;;;;10.70;99.90;;;;;;4946620;29;19958;-81
2023/03/31 05:46:28;;;;;;;;;;;10.80;99.90;;;;;;4945886;29;19965;-80
2023/03/31 05:48:57;;;;;;;;;;;10.80;99.90;;;;;;4946514;29;19930;-83
2023/03/31 05:51:25;;;;;;;;;;;10.80;99.90;;;;;;4944868;29;19926;-80
2023/03/31 05:53:55;;;;;;;;;;;10.90;99.90;;;;;;4951991;29;19930;-81
2023/03/31 05:56:23;;;;;;;;;;;10.90;99.90;;;;;;4956907;29;19926;-81
2023/03/31 05:58:50;;;;;;;;;;;11.00;99.90;;;;;;4958552;28;19931;-78
2023/03/31 06:01:19;;;;;;;;;;;11.00;99.90;;;;;;4957826;28;19937;-78
2023/03/31 06:03:46;;;;;;;;;;;11.00;99.90;;;;;;4956706;28;19969;-78
2023/03/31 06:06:15;;;;;;;;;;;11.10;99.90;;;;;;4938657;29;19974;-78
2023/03/31 06:08:42;;;;;;;;;;;11.10;99.90;;;;;;4938648;29;19976;-78
2023/03/31 06:11:11;;;;;;;;;;;11.10;99.90;;;;;;4956632;29;19926;-78
2023/03/31 06:13:38;;;;;;;;;;;11.10;99.90;;;;;;4937939;29;19993;-78
2023/03/31 06:16:06;;;;;;;;;;;11.10;99.90;;;;;;4942760;28;19961;-77
2023/03/31 06:18:34;;;;;;;;;;;11.10;99.90;;;;;;4937391;29;19922;-78
2023/03/31 06:21:01;;;;;;;;;;;11.10;99.90;;;;;;4952141;29;20043;-78
2023/03/31 06:23:29;;;;;;;;;;;11.10;99.90;;;;;;4928272;29;20531;-78
2023/03/31 06:26:00;;;;;;;;;;;11.10;99.90;;;;;;4921741;29;20689;-77
2023/03/31 06:28:27;;;;;;;;;;;11.10;99.90;;;;;;4957401;28;19931;-78
2023/03/31 06:30:59;;;;;;;;;;;11.00;99.90;;;;;;4934097;29;19926;-78
2023/03/31 06:33:26;;;;;;;;;;;10.90;99.90;;;;;;4954264;29;20029;-78
2023/03/31 06:35:55;;;;;;;;;;;10.90;99.90;;;;;;4933895;29;20556;-78
2023/03/31 06:38:22;;;;;;;;;;;10.80;99.90;;;;;;4937873;29;20440;-78
2023/03/31 06:40:50;;;;;;;;;;;10.80;99.90;;;;;;4936382;29;19922;-78
2023/03/31 06:43:17;;;;;;;;;;;10.80;99.90;;;;;;4939226;29;20421;-78
2023/03/31 06:45:44;;;;;;;;;;;10.80;99.90;;;;;;4940696;29;19934;-78
2023/03/31 06:48:12;;;;;;;;;;;10.80;99.90;;;;;;4942508;29;19926;-78
2023/03/31 06:50:41;;;;;;;;;;;10.80;99.90;;;;;;4959049;29;19932;-78
2023/03/31 06:53:09;;;;;;;;;;;10.90;99.90;;;;;;4940558;29;20635;-78
2023/03/31 06:55:36;;;;;;;;;;;10.90;99.90;;;;;;4958481;29;19926;-77
2023/03/31 06:58:04;;;;;;;;;;;11.00;99.90;;;;;;4941664;29;19953;-78
2023/03/31 07:00:31;;;;;;;;;;;11.00;99.90;;;;;;4958911;29;20017;-78
2023/03/31 07:02:58;;;;;;;;;;;11.10;99.90;;;;;;4940001;29;19937;-80
2023/03/31 07:05:27;;;;;;;;;;;11.00;99.90;;;;;;4944766;29;19960;-80
2023/03/31 07:07:54;;;;;;;;;;;11.00;99.90;;;;;;4948961;23;19922;-76
2023/03/31 07:10:21;;;;;;;;;;;11.00;99.90;;;;;;4956100;28;19945;-76
2023/03/31 07:12:48;;;;;;;;;;;11.00;99.90;;;;;;4951840;29;19933;-75
2023/03/31 07:15:17;;;;;;;;;;;11.10;99.90;;;;;;4954512;28;19934;-76
2023/03/31 07:17:44;;;;;;;;;;;11.10;99.90;;;;;;4955402;29;19933;-76
2023/03/31 07:20:13;;;;;;;;;;;11.10;99.90;;;;;;4958990;28;19929;-76
2023/03/31 07:22:41;;;;;;;;;;;11.20;99.90;;;;;;4951446;28;19926;-76
2023/03/31 07:25:08;;;;;;;;;;;11.10;99.90;;;;;;4949302;29;20658;-76
2023/03/31 07:27:35;;;;;;;;;;;11.20;99.90;;;;;;4951798;29;19996;-77
2023/03/31 07:30:01;;;;;;;;;;;11.10;99.90;;;;;;4954000;28;20055;-77
2023/03/31 07:32:29;;;;;;;;;;;11.10;99.90;;;;;;4956353;29;19926;-77
2023/03/31 07:34:56;;;;;;;;;;;11.60;99.90;;;;;;4955316;28;20276;-81
2023/03/31 07:37:23;;;;;;;;;;;11.00;99.90;;;;;;4956077;28;19922;-76
2023/03/31 07:42:32;;;;;;;;;;;11.10;99.90;;;;;;5216429;23;19926;-75
2023/03/31 07:44:58;;;;;;;;;;;11.10;99.90;;;;;;4960532;28;20379;-75
2023/03/31 07:47:25;;;;;;;;;;;11.20;99.90;;;;;;4954537;28;20285;-76
2023/03/31 07:49:53;;;;;;;;;;;11.20;99.90;;;;;;4961290;28;19926;-76
2023/03/31 07:52:20;;;;;;;;;;;11.30;99.90;;;;;;4952901;29;19934;-75
2023/03/31 07:54:47;;;;;;;;;;;11.40;99.90;;;;;;4929694;28;19937;-75
2023/03/31 07:57:15;;;;;;;;;;;11.50;99.90;;;;;;4948510;29;19946;-79
2023/03/31 07:59:44;;;;;;;;;;;11.50;99.90;;;;;;4959900;28;19970;-82
2023/03/31 08:02:12;;;;;;;;;;;11.50;99.90;;;;;;4956368;28;19930;-78
2023/03/31 08:04:40;;;;;;;;;;;11.50;99.90;;;;;;4945542;29;20443;-76
2023/03/31 08:07:09;;;;;;;;;;;11.50;99.90;;;;;;4955005;29;19930;-77
2023/03/31 08:09:38;;;;;;;;;;;11.40;99.90;;;;;;4954931;29;19969;-84
2023/03/31 08:12:05;;;;;;;;;;;11.40;99.90;;;;;;4954911;28;19981;-77
2023/03/31 08:14:32;;;;;;;;;;;11.30;99.90;;;;;;4954101;29;19937;-79
2023/03/31 08:17:01;;;;;;;;;;;11.20;99.90;;;;;;4955160;29;19923;-77
2023/03/31 08:19:28;;;;;;;;;;;11.10;99.90;;;;;;4941929;28;19930;-76
2023/03/31 08:21:55;;;;;;;;;;;11.10;99.90;;;;;;4959010;28;20029;-76
2023/03/31 08:24:23;;;;;;;;;;;11.00;99.90;;;;;;4959367;29;19985;-77
2023/03/31 08:26:50;;;;;;;;;;;11.00;99.90;;;;;;4962255;29;19933;-77
2023/03/31 08:29:17;;;;;;;;;;;11.00;99.90;;;;;;4957817;29;20117;-76
2023/03/31 08:31:43;;;;;;;;;;;11.20;99.90;;;;;;4950291;28;19969;-77
2023/03/31 08:34:10;;;;;;;;;;;11.40;99.90;;;;;;4946613;29;19929;-76
2023/03/31 08:36:37;;;;;;;;;;;11.70;99.90;;;;;;4948150;28;19933;-76
2023/03/31 08:39:05;;;;;;;;;;;12.00;99.90;;;;;;4951308;28;19926;-76
2023/03/31 08:41:37;;;;;;;;;;;12.30;99.90;;;;;;4953240;28;20229;-76
2023/03/31 08:44:06;;;;;;;;;;;12.60;99.90;;;;;;4958026;29;19933;-76
2023/03/31 08:46:34;;;;;;;;;;;12.80;99.90;;;;;;4959436;29;19926;-76
2023/03/31 08:49:03;;;;;;;;;;;13.00;99.90;;;;;;4949968;28;20358;-77
2023/03/31 08:51:31;;;;;;;;;;;13.10;99.90;;;;;;4934703;29;20429;-77
2023/03/31 08:54:02;;;;;;;;;;;13.30;99.90;;;;;;4954853;29;19930;-77
2023/03/31 08:56:29;;;;;;;;;;;13.50;99.90;;;;;;4950182;29;20338;-77
2023/03/31 08:59:01;;;;;;;;;;;13.60;99.90;;;;;;4953005;29;19932;-77
2023/03/31 09:01:33;;;;;;;;;;;13.80;99.90;;;;;;4940805;29;19926;-77
2023/03/31 09:04:13;;;;;;;;;;;14.00;99.90;;;;;;4934910;29;19949;-77
2023/03/31 09:06:43;;;;;;;;;;;14.10;99.90;;;;;;4945256;28;19985;-76
2023/03/31 09:09:11;;;;;;;;;;;14.20;99.90;;;;;;4953005;29;19990;-77
2023/03/31 09:11:39;;;;;;;;;;;13.90;99.90;;;;;;4950405;28;19926;-77
2023/03/31 09:14:21;;;;;;;;;;;14.10;99.90;;;;;;4946838;28;19933;-77
2023/03/31 09:16:53;;;;;;;;;;;14.10;99.90;;;;;;4947975;28;20388;-76
2023/03/31 09:19:22;;;;;;;;;;;14.10;99.90;;;;;;4952339;28;19926;-77
2023/03/31 09:21:51;;;;;;;;;;;14.10;99.90;;;;;;4951087;28;20382;-76
2023/03/31 09:24:20;;;;;;;;;;;14.00;99.90;;;;;;4962804;28;19921;-78
2023/03/31 09:26:52;;;;;;;;;;;14.00;99.90;;;;;;4953315;29;19930;-77
2023/03/31 09:29:23;;;;;;;;;;;14.00;99.90;;;;;;4948263;28;19934;-81
2023/03/31 09:31:53;;;;;;;;;;;14.10;99.90;;;;;;4948363;29;20040;-77
2023/03/31 09:34:24;;;;;;;;;;;14.10;99.90;;;;;;4958319;28;20009;-78
2023/03/31 09:36:51;;;;;;;;;;;14.20;99.90;;;;;;4968602;28;20113;-82
2023/03/31 09:39:18;;;;;;;;;;;14.30;99.90;;;;;;4929139;29;20359;-81
2023/03/31 09:41:47;;;;;;;;;;;14.40;99.90;;;;;;4945253;28;19982;-80
2023/03/31 09:44:26;;;;;;;;;;;14.50;99.90;;;;;;4958412;28;20223;-82
2023/03/31 09:46:54;;;;;;;;;;;14.60;99.90;;;;;;4952445;29;19935;-79
2023/03/31 09:49:22;;;;;;;;;;;14.70;99.90;;;;;;4952159;29;19930;-80
2023/03/31 09:51:53;;;;;;;;;;;14.90;99.90;;;;;;4950505;28;19922;-81
2023/03/31 09:54:24;;;;;;;;;;;15.20;99.90;;;;;;4958568;28;20169;-80
2023/03/31 09:56:52;;;;;;;;;;;15.60;99.90;;;;;;4942119;28;19937;-79
2023/03/31 09:59:20;;;;;;;;;;;16.00;99.90;;;;;;4968528;28;20446;-78
2023/03/31 10:01:49;;;;;;;;;;;16.30;99.90;;;;;;4941422;28;20263;-79
2023/03/31 10:04:22;;;;;;;;;;;16.70;99.90;;;;;;4937741;29;19929;-79
2023/03/31 10:06:51;;;;;;;;;;;16.80;99.90;;;;;;4941608;29;19949;-78
2023/03/31 10:09:20;;;;;;;;;;;16.90;99.90;;;;;;4941007;29;19930;-80
2023/03/31 10:11:57;;;;;;;;;;;16.80;99.90;;;;;;4945832;28;19926;-79
2023/03/31 10:14:25;;;;;;;;;;;16.30;99.90;;;;;;4945242;28;19927;-78
2023/03/31 10:16:54;;;;;;;;;;;15.50;99.90;;;;;;4953917;29;19930;-77
2023/03/31 10:19:25;;;;;;;;;;;14.60;99.90;;;;;;4941015;28;20006;-78
2023/03/31 10:21:58;;;;;;;;;;;14.10;99.90;;;;;;4944593;29;20021;-78
2023/03/31 10:24:35;;;;;;;;;;;13.90;99.90;;;;;;4955414;29;19949;-88
2023/03/31 10:27:02;;;;;;;;;;;13.80;99.90;;;;;;4952322;29;19974;-79
2023/03/31 10:29:29;;;;;;;;;;;13.90;99.90;;;;;;4947778;28;19998;-82
2023/03/31 10:32:02;;;;;;;;;;;14.20;99.90;;;;;;4938938;29;19922;-78
2023/03/31 10:34:32;;;;;;;;;;;14.60;99.90;;;;;;4946136;28;19936;-82
2023/03/31 10:36:58;;;;;;;;;;;15.20;99.90;;;;;;4975737;28;19925;-78
2023/03/31 10:39:29;;;;;;;;;;;15.70;99.90;;;;;;4955452;28;19929;-82
2023/03/31 10:41:56;;;;;;;;;;;16.20;99.90;;;;;;4965716;23;19926;-78
2023/03/31 10:44:33;;;;;;;;;;;16.50;99.90;;;;;;4942080;29;20426;-78
2023/03/31 10:47:04;;;;;;;;;;;17.00;99.90;;;;;;4957592;28;19991;-78
2023/03/31 10:49:37;;;;;;;;;;;17.10;99.90;;;;;;4941043;29;19995;-78
2023/03/31 10:52:04;;;;;;;;;;;17.30;99.90;;;;;;4955147;29;19989;-78
2023/03/31 10:54:32;;;;;;;;;;;17.50;99.90;;;;;;4939531;29;20010;-78
2023/03/31 10:57:02;;;;;;;;;;;17.30;99.90;;;;;;4945109;28;19986;-78
2023/03/31 10:59:40;;;;;;;;;;;17.00;99.90;;;;;;4952860;29;20005;-78
2023/03/31 11:02:22;;;;;;;;;;;16.40;99.90;;;;;;4946151;29;20516;-78
2023/03/31 11:04:57;;;;;;;;;;;15.60;99.90;;;;;;4949712;29;19923;-79
2023/03/31 11:07:28;;;;;;;;;;;15.10;99.90;;;;;;4949636;29;20330;-78
2023/03/31 11:10:03;;;;;;;;;;;14.90;99.90;;;;;;4952742;28;19922;-78
2023/03/31 11:12:33;;;;;;;;;;;15.00;99.90;;;;;;4950442;28;20420;-79
2023/03/31 11:15:08;;;;;;;;;;;15.40;99.90;;;;;;4950362;29;19926;-78
2023/03/31 11:17:41;;;;;;;;;;;15.50;99.90;;;;;;4950827;29;19973;-78
2023/03/31 11:20:14;;;;;;;;;;;15.60;99.90;;;;;;4946346;28;19937;-79
2023/03/31 11:22:44;;;;;;;;;;;15.70;99.90;;;;;;4943908;28;19961;-78
2023/03/31 11:25:16;;;;;;;;;;;15.80;99.90;;;;;;4948486;29;20931;-79
2023/03/31 11:27:53;;;;;;;;;;;16.00;99.90;;;;;;4953199;28;20286;-78
2023/03/31 11:30:23;;;;;;;;;;;16.20;99.90;;;;;;4943857;29;19942;-78
2023/03/31 11:32:56;;;;;;;;;;;16.40;99.90;;;;;;4941424;29;19929;-79
2023/03/31 11:35:37;;;;;;;;;;;16.50;99.90;;;;;;4958767;29;20039;-79
2023/03/31 11:38:17;;;;;;;;;;;16.60;99.90;;;;;;4945097;29;19926;-78
2023/03/31 11:40:49;;;;;;;;;;;16.60;99.90;;;;;;4956582;28;19926;-79
2023/03/31 11:43:21;;;;;;;;;;;16.50;99.90;;;;;;4940496;29;19930;-79
2023/03/31 11:45:51;;;;;;;;;;;16.50;99.90;;;;;;4947597;29;19933;-79
2023/03/31 11:48:22;;;;;;;;;;;16.40;99.90;;;;;;4951748;28;20056;-80
2023/03/31 11:50:51;;;;;;;;;;;16.30;99.90;;;;;;4947964;29;19926;-79
2023/03/31 11:53:19;;;;;;;;;;;16.20;99.90;;;;;;4965262;29;19973;-80
2023/03/31 11:55:48;;;;;;;;;;;16.30;99.90;;;;;;4944586;29;20525;-79
2023/03/31 11:58:16;;;;;;;;;;;16.40;99.90;;;;;;4947183;29;19981;-80
2023/03/31 12:00:44;;;;;;;;;;;16.70;99.90;;;;;;4957465;28;19926;-80
2023/03/31 12:03:14;;;;;;;;;;;17.00;99.90;;;;;;4948630;29;19926;-80
2023/03/31 12:05:45;;;;;;;;;;;17.30;99.90;;;;;;4950407;28;19927;-80
2023/03/31 12:08:16;;;;;;;;;;;17.50;99.90;;;;;;4957540;28;19934;-80
2023/03/31 12:10:46;;;;;;;;;;;17.50;99.90;;;;;;4933960;29;19937;-80
2023/03/31 12:13:30;;;;;;;;;;;17.40;99.90;;;;;;4953639;29;19926;-81
2023/03/31 12:16:01;;;;;;;;;;;17.20;99.90;;;;;;4959861;28;19922;-81
2023/03/31 12:18:31;;;;;;;;;;;16.80;99.90;;;;;;4953581;29;19930;-81
2023/03/31 12:21:00;;;;;;;;;;;16.40;99.90;;;;;;4955144;28;19985;-81
2023/03/31 12:23:35;;;;;;;;;;;16.10;99.90;;;;;;4952840;29;19994;-80
2023/03/31 12:26:04;;;;;;;;;;;15.90;99.90;;;;;;4956425;29;19922;-81
2023/03/31 12:28:32;;;;;;;;;;;15.60;99.90;;;;;;4957961;28;19934;-81
2023/03/31 12:31:01;;;;;;;;;;;15.30;99.90;;;;;;4957661;29;20049;-82
2023/03/31 12:33:30;;;;;;;;;;;15.20;99.90;;;;;;4959733;29;19986;-81
2023/03/31 12:36:13;;;;;;;;;;;15.30;99.90;;;;;;4954443;28;19922;-81
2023/03/31 12:38:46;;;;;;;;;;;15.50;99.90;;;;;;4953800;29;19933;-80
2023/03/31 12:41:16;;;;;;;;;;;15.70;99.90;;;;;;4964968;28;19923;-81
2023/03/31 12:44:05;;;;;;;;;;;16.00;99.90;;;;;;4966005;29;19928;-82
2023/03/31 12:46:39;;;;;;;;;;;16.40;99.90;;;;;;4965942;29;19926;-82
2023/03/31 12:49:12;;;;;;;;;;;16.80;99.90;;;;;;4948812;29;19962;-82
2023/03/31 12:51:48;;;;;;;;;;;17.20;99.90;;;;;;4946802;29;19926;-82
2023/03/31 12:54:22;;;;;;;;;;;17.40;99.90;;;;;;4945939;29;19926;-82
2023/03/31 12:57:03;;;;;;;;;;;17.50;99.90;;;;;;4950112;28;19966;-82
2023/03/31 12:59:32;;;;;;;;;;;17.60;99.90;;;;;;4942153;28;19926;-81
2023/03/31 13:02:19;;;;;;;;;;;17.80;99.90;;;;;;4945446;29;19910;-81
2023/03/31 13:04:49;;;;;;;;;;;17.90;99.90;;;;;;4940601;29;20044;-83
2023/03/31 13:07:31;;;;;;;;;;;18.00;99.90;;;;;;4955925;28;20616;-80
2023/03/31 13:10:21;;;;;;;;;;;17.90;99.90;;;;;;4962215;28;19946;-82
2023/03/31 13:12:56;;;;;;;;;;;17.70;99.90;;;;;;4963216;28;19965;-82
2023/03/31 13:15:24;;;;;;;;;;;17.40;99.90;;;;;;4963248;29;19930;-80
2023/03/31 13:17:56;;;;;;;;;;;17.40;99.90;;;;;;4947155;29;19946;-82
2023/03/31 13:20:31;;;;;;;;;;;17.50;99.90;;;;;;4946349;29;19930;-82
2023/03/31 13:23:03;;;;;;;;;;;17.70;99.90;;;;;;4947385;29;19926;-82
2023/03/31 13:25:39;;;;;;;;;;;17.90;99.90;;;;;;4961730;28;19930;-82
2023/03/31 13:28:31;;;;;;;;;;;17.90;99.90;;;;;;4947595;29;19926;-82
2023/03/31 13:31:00;;;;;;;;;;;18.00;99.90;;;;;;4953789;28;19949;-84
2023/03/31 13:33:31;;;;;;;;;;;18.00;99.90;;;;;;4960348;28;19932;-84
2023/03/31 13:36:15;;;;;;;;;;;18.10;99.90;;;;;;4962782;28;19930;-83
2023/03/31 13:38:47;;;;;;;;;;;18.10;99.90;;;;;;4957144;28;19926;-84
2023/03/31 13:41:23;;;;;;;;;;;17.80;99.90;;;;;;4956886;28;19984;-84
2023/03/31 13:44:11;;;;;;;;;;;17.60;99.90;;;;;;4957426;29;19997;-84
2023/03/31 13:46:50;;;;;;;;;;;17.40;99.90;;;;;;4919320;29;20047;-84
2023/03/31 13:49:48;;;;;;;;;;;17.30;99.90;;;;;;4935537;29;19922;-84
2023/03/31 13:52:20;;;;;;;;;;;17.30;99.90;;;;;;4887652;29;20068;-84
2023/03/31 13:55:08;;;;;;;;;;;17.40;99.90;;;;;;4935438;29;19944;-83
2023/03/31 13:57:56;;;;;;;;;;;17.40;99.90;;;;;;4939838;29;19926;-85
2023/03/31 14:00:30;;;;;;;;;;;17.50;99.90;;;;;;4950756;28;19926;-84
2023/03/31 14:03:14;;;;;;;;;;;17.60;99.90;;;;;;4955255;28;19933;-85
2023/03/31 14:05:42;;;;;;;;;;;17.70;99.90;;;;;;4956944;29;19938;-86
2023/03/31 14:08:13;;;;;;;;;;;17.80;99.90;;;;;;4946892;29;19926;-85
2023/03/31 14:10:41;;;;;;;;;;;17.90;99.90;;;;;;4959963;28;19946;-84
2023/03/31 14:13:11;;;;;;;;;;;18.00;99.90;;;;;;4958776;29;19969;-84
2023/03/31 14:15:40;;;;;;;;;;;18.10;99.90;;;;;;4943023;29;20610;-84
2023/03/31 14:18:07;;;;;;;;;;;18.10;99.90;;;;;;4940645;29;20136;-84
2023/03/31 14:20:50;;;;;;;;;;;18.20;99.90;;;;;;4942398;29;19931;-82
2023/03/31 14:23:23;;;;;;;;;;;18.10;99.90;;;;;;4957059;29;19919;-83
2023/03/31 14:25:54;;;;;;;;;;;18.10;99.90;;;;;;4942971;29;19918;-85
2023/03/31 14:28:31;;;;;;;;;;;18.00;99.90;;;;;;4954496;28;19953;-83
2023/03/31 14:31:03;;;;;;;;;;;17.80;99.90;;;;;;4958107;29;19922;-85
2023/03/31 14:33:36;;;;;;;;;;;17.70;99.90;;;;;;4942574;29;19946;-82
2023/03/31 14:36:08;;;;;;;;;;;17.50;99.90;;;;;;4943267;29;19990;-83
2023/03/31 14:38:36;;;;;;;;;;;17.30;99.90;;;;;;4946443;29;19937;-83